createdAt,value
2023-01-30T00:00:08.568Z,45.29
2023-01-30T00:01:08.563Z,47.05
2023-01-30T00:02:08.613Z,44.17
2023-01-30T00:03:08.616Z,45.30
2023-01-30T00:04:08.533Z,44.82
2023-01-30T00:05:08.656Z,46.27
2023-01-30T00:06:08.524Z,44.05
2023-01-30T00:07:08.517Z,42.15
2023-01-30T00:08:08.534Z,42.32
2023-01-30T00:09:08.485Z,42.12
2023-01-30T00:10:09.504Z,42.29
2023-01-30T00:11:08.493Z,43.96
2023-01-30T00:12:08.484Z,42.32
2023-01-30T00:13:08.495Z,46.86
2023-01-30T00:14:08.462Z,42.28
2023-01-30T00:15:08.455Z,45.74
2023-01-30T00:16:08.528Z,52.34
2023-01-30T00:17:08.439Z,52.83
2023-01-30T00:18:08.487Z,42.46
2023-01-30T00:19:08.428Z,43.97
2023-01-30T00:20:08.419Z,42.04
2023-01-30T00:21:08.411Z,48.15
2023-01-30T00:22:08.406Z,49.80
2023-01-30T00:23:08.471Z,42.49
2023-01-30T00:24:08.457Z,47.10
2023-01-30T00:25:08.546Z,44.29
2023-01-30T00:26:08.384Z,42.34
2023-01-30T00:27:08.377Z,47.98
2023-01-30T00:28:08.441Z,43.25
2023-01-30T00:29:08.353Z,42.47
2023-01-30T00:30:08.361Z,42.60
2023-01-30T00:31:08.360Z,57.29
2023-01-30T00:32:08.349Z,43.84
2023-01-30T00:33:08.355Z,46.49
2023-01-30T00:34:08.321Z,42.96
2023-01-30T00:35:08.315Z,45.87
2023-01-30T00:36:08.310Z,42.90
2023-01-30T00:37:08.757Z,42.87
2023-01-30T00:38:09.313Z,42.88
2023-01-30T00:39:08.313Z,46.01
2023-01-30T00:40:08.301Z,43.03
2023-01-30T00:41:08.266Z,45.26
2023-01-30T00:42:08.257Z,44.08
2023-01-30T00:43:08.282Z,43.07
2023-01-30T00:44:08.251Z,43.06
2023-01-30T00:45:08.248Z,43.33
2023-01-30T00:46:08.339Z,46.26
2023-01-30T00:47:08.228Z,43.39
2023-01-30T00:48:08.274Z,54.88
2023-01-30T00:49:08.215Z,43.28
2023-01-30T00:50:08.222Z,43.50
2023-01-30T00:51:08.262Z,46.55
2023-01-30T00:52:08.193Z,44.48
2023-01-30T00:53:08.195Z,42.86
2023-01-30T00:54:08.206Z,43.13
2023-01-30T00:55:08.168Z,48.48
2023-01-30T00:56:08.166Z,42.72
2023-01-30T00:57:08.161Z,48.18
2023-01-30T00:58:08.161Z,43.10
2023-01-30T00:59:08.176Z,55.76
2023-01-30T01:00:08.215Z,44.60
2023-01-30T01:01:08.147Z,42.97
2023-01-30T01:02:08.217Z,43.03
2023-01-30T01:03:08.122Z,46.18
2023-01-30T01:04:08.129Z,45.59
2023-01-30T01:05:08.099Z,54.71
2023-01-30T01:06:08.136Z,45.98
2023-01-30T01:07:08.087Z,45.97
2023-01-30T01:08:08.100Z,56.54
2023-01-30T01:09:08.113Z,46.03
2023-01-30T01:10:08.079Z,43.87
2023-01-30T01:11:08.058Z,43.01
2023-01-30T01:12:08.053Z,45.51
2023-01-30T01:13:08.038Z,46.73
2023-01-30T01:14:08.054Z,43.33
2023-01-30T01:15:08.034Z,43.29
2023-01-30T01:16:08.026Z,43.18
2023-01-30T01:17:08.012Z,43.59
2023-01-30T01:18:08.005Z,51.19
2023-01-30T01:19:08.027Z,47.30
2023-01-30T01:20:07.992Z,43.52
2023-01-30T01:21:07.988Z,51.58
2023-01-30T01:22:07.984Z,45.92
2023-01-30T01:23:07.973Z,43.50
2023-01-30T01:24:07.989Z,46.36
2023-01-30T01:25:07.964Z,53.13
2023-01-30T01:26:07.952Z,50.51
2023-01-30T01:27:07.943Z,45.99
2023-01-30T01:28:07.934Z,52.38
2023-01-30T01:29:07.948Z,43.57
2023-01-30T01:30:07.925Z,45.92
2023-01-30T01:31:08.087Z,44.42
2023-01-30T01:32:07.967Z,54.64
2023-01-30T01:33:07.919Z,46.45
2023-01-30T01:34:07.917Z,53.80
2023-01-30T01:35:07.900Z,44.15
2023-01-30T01:36:07.877Z,47.21
2023-01-30T01:37:07.947Z,47.13
2023-01-30T01:38:07.871Z,45.91
2023-01-30T01:39:07.892Z,56.65
2023-01-30T01:40:07.856Z,57.82
2023-01-30T01:41:07.853Z,61.96
2023-01-30T01:42:08.860Z,61.20
2023-01-30T01:43:07.839Z,61.30
2023-01-30T01:44:07.864Z,61.55
2023-01-30T01:45:07.818Z,61.36
2023-01-30T01:46:07.822Z,61.86
2023-01-30T01:47:07.805Z,61.83
2023-01-30T01:48:07.799Z,60.60
2023-01-30T01:49:07.814Z,61.17
2023-01-30T01:50:08.839Z,61.32
2023-01-30T01:51:07.784Z,60.11
2023-01-30T01:52:07.763Z,60.44
2023-01-30T01:53:07.757Z,52.16
2023-01-30T01:54:07.779Z,40.67
2023-01-30T01:55:07.735Z,46.62
2023-01-30T01:56:07.739Z,40.70
2023-01-30T01:57:07.729Z,42.77
2023-01-30T01:58:07.720Z,41.22
2023-01-30T01:59:07.735Z,48.42
2023-01-30T02:00:07.725Z,40.95
2023-01-30T02:01:07.757Z,44.15
2023-01-30T02:02:07.803Z,44.50
2023-01-30T02:03:07.696Z,42.34
2023-01-30T02:04:07.680Z,48.32
2023-01-30T02:05:07.704Z,48.51
2023-01-30T02:06:07.680Z,42.24
2023-01-30T02:07:07.665Z,46.00
2023-01-30T02:08:07.654Z,46.29
2023-01-30T02:09:07.679Z,47.52
2023-01-30T02:10:07.651Z,46.74
2023-01-30T02:11:07.624Z,42.69
2023-01-30T02:12:07.630Z,43.06
2023-01-30T02:13:07.630Z,43.10
2023-01-30T02:14:07.602Z,44.53
2023-01-30T02:15:07.653Z,51.75
2023-01-30T02:16:07.588Z,46.32
2023-01-30T02:17:07.576Z,52.29
2023-01-30T02:18:07.568Z,57.56
2023-01-30T02:19:07.584Z,59.49
2023-01-30T02:20:07.606Z,61.28
2023-01-30T02:21:07.545Z,61.26
2023-01-30T02:22:07.556Z,60.20
2023-01-30T02:23:07.545Z,60.38
2023-01-30T02:24:07.531Z,61.98
2023-01-30T02:25:07.544Z,60.11
2023-01-30T02:26:07.514Z,59.21
2023-01-30T02:27:07.507Z,59.90
2023-01-30T02:28:07.504Z,59.47
2023-01-30T02:29:07.499Z,58.39
2023-01-30T02:30:07.516Z,59.07
2023-01-30T02:31:07.537Z,61.31
2023-01-30T02:32:07.467Z,59.16
2023-01-30T02:33:07.457Z,59.27
2023-01-30T02:34:07.468Z,58.79
2023-01-30T02:35:07.473Z,58.46
2023-01-30T02:36:07.440Z,58.77
2023-01-30T02:37:07.480Z,58.13
2023-01-30T02:38:07.457Z,58.26
2023-01-30T02:39:07.412Z,61.49
2023-01-30T02:40:08.448Z,58.01
2023-01-30T02:41:07.401Z,57.86
2023-01-30T02:42:07.388Z,58.83
2023-01-30T02:43:07.427Z,58.17
2023-01-30T02:44:07.384Z,58.58
2023-01-30T02:45:07.413Z,59.12
2023-01-30T02:46:07.401Z,59.50
2023-01-30T02:47:08.386Z,59.39
2023-01-30T02:48:07.355Z,58.67
2023-01-30T02:49:07.348Z,58.65
2023-01-30T02:50:07.362Z,58.77
2023-01-30T02:51:07.445Z,59.58
2023-01-30T02:52:07.319Z,59.71
2023-01-30T02:53:07.342Z,59.96
2023-01-30T02:54:07.309Z,60.00
2023-01-30T02:55:07.320Z,60.49
2023-01-30T02:56:07.296Z,60.41
2023-01-30T02:57:07.299Z,60.55
2023-01-30T02:58:07.275Z,60.81
2023-01-30T02:59:07.269Z,61.58
2023-01-30T03:00:07.509Z,60.74
2023-01-30T03:01:07.331Z,60.68
2023-01-30T03:02:07.299Z,60.06
2023-01-30T03:03:07.262Z,60.29
2023-01-30T03:04:07.235Z,60.84
2023-01-30T03:05:07.257Z,60.66
2023-01-30T03:06:07.220Z,62.00
2023-01-30T03:07:07.211Z,60.21
2023-01-30T03:08:07.213Z,60.09
2023-01-30T03:09:07.194Z,62.20
2023-01-30T03:10:07.219Z,62.75
2023-01-30T03:11:07.179Z,61.36
2023-01-30T03:12:07.167Z,61.59
2023-01-30T03:13:07.170Z,61.65
2023-01-30T03:14:07.150Z,62.23
2023-01-30T03:15:07.174Z,61.94
2023-01-30T03:16:07.153Z,61.69
2023-01-30T03:17:07.127Z,61.86
2023-01-30T03:18:07.121Z,61.91
2023-01-30T03:19:07.133Z,61.91
2023-01-30T03:20:07.117Z,62.07
2023-01-30T03:21:07.143Z,61.81
2023-01-30T03:22:07.084Z,56.69
2023-01-30T03:23:07.089Z,47.99
2023-01-30T03:24:07.077Z,58.64
2023-01-30T03:25:07.067Z,51.23
2023-01-30T03:26:07.084Z,44.78
2023-01-30T03:27:07.052Z,50.15
2023-01-30T03:28:07.051Z,46.04
2023-01-30T03:29:07.059Z,48.34
2023-01-30T03:30:07.040Z,59.95
2023-01-30T03:31:07.227Z,51.11
2023-01-30T03:32:07.008Z,48.20
2023-01-30T03:33:07.002Z,48.08
2023-01-30T03:34:06.996Z,47.53
2023-01-30T03:35:06.986Z,45.50
2023-01-30T03:36:07.005Z,48.80
2023-01-30T03:37:06.963Z,48.79
2023-01-30T03:38:07.966Z,58.69
2023-01-30T03:39:06.960Z,48.99
2023-01-30T03:40:06.958Z,50.15
2023-01-30T03:41:06.971Z,50.47
2023-01-30T03:42:06.931Z,46.81
2023-01-30T03:43:06.929Z,46.96
2023-01-30T03:44:06.921Z,43.57
2023-01-30T03:45:06.913Z,50.82
2023-01-30T03:46:06.986Z,49.56
2023-01-30T03:47:06.907Z,58.47
2023-01-30T03:48:06.897Z,50.71
2023-01-30T03:49:06.879Z,48.78
2023-01-30T03:50:06.918Z,48.74
2023-01-30T03:51:06.897Z,49.28
2023-01-30T03:52:06.864Z,52.25
2023-01-30T03:53:06.910Z,55.10
2023-01-30T03:54:06.843Z,44.58
2023-01-30T03:55:06.858Z,45.29
2023-01-30T03:56:06.907Z,53.79
2023-01-30T03:57:06.822Z,48.13
2023-01-30T03:58:06.822Z,52.20
2023-01-30T03:59:06.809Z,50.84
2023-01-30T04:00:06.819Z,56.65
2023-01-30T04:01:06.862Z,50.34
2023-01-30T04:02:06.844Z,53.10
2023-01-30T04:03:06.777Z,51.24
2023-01-30T04:04:06.767Z,53.76
2023-01-30T04:05:06.766Z,56.34
2023-01-30T04:06:06.796Z,51.11
2023-01-30T04:07:06.744Z,52.30
2023-01-30T04:08:06.744Z,53.29
2023-01-30T04:09:06.739Z,53.54
2023-01-30T04:10:06.752Z,55.53
2023-01-30T04:11:06.745Z,50.07
2023-01-30T04:12:06.712Z,53.46
2023-01-30T04:13:06.703Z,52.66
2023-01-30T04:14:06.712Z,58.39
2023-01-30T04:15:06.691Z,53.24
2023-01-30T04:16:06.706Z,51.24
2023-01-30T04:17:06.688Z,51.87
2023-01-30T04:18:06.669Z,50.23
2023-01-30T04:19:06.659Z,50.45
2023-01-30T04:20:06.650Z,54.34
2023-01-30T04:21:06.707Z,59.96
2023-01-30T04:22:06.643Z,55.01
2023-01-30T04:23:06.639Z,50.29
2023-01-30T04:24:06.632Z,50.37
2023-01-30T04:25:06.632Z,51.71
2023-01-30T04:26:06.646Z,52.92
2023-01-30T04:27:06.598Z,54.11
2023-01-30T04:28:06.602Z,56.78
2023-01-30T04:29:06.580Z,55.85
2023-01-30T04:30:06.574Z,47.43
2023-01-30T04:31:06.633Z,54.16
2023-01-30T04:32:06.556Z,53.67
2023-01-30T04:33:06.558Z,59.99
2023-01-30T04:34:06.547Z,56.64
2023-01-30T04:35:06.585Z,53.48
2023-01-30T04:36:06.557Z,57.40
2023-01-30T04:37:06.531Z,59.31
2023-01-30T04:38:06.511Z,54.09
2023-01-30T04:39:06.512Z,55.74
2023-01-30T04:40:06.495Z,60.74
2023-01-30T04:41:06.521Z,53.96
2023-01-30T04:42:06.480Z,54.49
2023-01-30T04:43:06.473Z,53.71
2023-01-30T04:44:06.479Z,55.23
2023-01-30T04:45:06.470Z,49.34
2023-01-30T04:46:06.446Z,53.06
2023-01-30T04:47:06.471Z,52.95
2023-01-30T04:48:06.433Z,56.57
2023-01-30T04:49:06.424Z,51.39
2023-01-30T04:50:06.417Z,53.30
2023-01-30T04:51:06.444Z,59.53
2023-01-30T04:52:06.429Z,53.71
2023-01-30T04:53:06.388Z,52.29
2023-01-30T04:54:06.390Z,56.65
2023-01-30T04:55:39.176Z,60.39
2023-01-30T04:56:06.392Z,60.94
2023-01-30T04:57:06.400Z,61.38
2023-01-30T04:58:06.414Z,61.97
2023-01-30T04:59:06.364Z,61.63
2023-01-30T05:00:06.351Z,60.04
2023-01-30T05:01:06.367Z,59.10
2023-01-30T05:02:06.443Z,58.81
2023-01-30T05:03:07.383Z,59.40
2023-01-30T05:04:06.324Z,58.08
2023-01-30T05:05:06.340Z,58.90
2023-01-30T05:06:06.319Z,58.62
2023-01-30T05:07:06.314Z,58.67
2023-01-30T05:08:06.375Z,58.94
2023-01-30T05:09:06.271Z,58.05
2023-01-30T05:10:06.280Z,59.27
2023-01-30T05:11:06.266Z,59.50
2023-01-30T05:12:06.304Z,59.77
2023-01-30T05:13:06.275Z,59.00
2023-01-30T05:14:06.257Z,60.21
2023-01-30T05:15:06.249Z,58.83
2023-01-30T05:16:06.274Z,59.27
2023-01-30T05:17:06.269Z,59.76
2023-01-30T05:18:06.243Z,58.62
2023-01-30T05:19:06.204Z,58.51
2023-01-30T05:20:06.209Z,63.16
2023-01-30T05:21:06.212Z,59.93
2023-01-30T05:22:06.214Z,59.69
2023-01-30T05:23:06.282Z,60.66
2023-01-30T05:24:06.190Z,60.75
2023-01-30T05:25:06.195Z,61.43
2023-01-30T05:26:06.158Z,61.80
2023-01-30T05:27:06.259Z,61.01
2023-01-30T05:28:06.171Z,61.20
2023-01-30T05:29:06.157Z,61.27
2023-01-30T05:30:06.175Z,62.26
2023-01-30T05:31:06.157Z,62.09
2023-01-30T05:32:06.285Z,61.19
2023-01-30T05:33:06.155Z,60.99
2023-01-30T05:34:06.132Z,60.94
2023-01-30T05:35:06.112Z,63.93
2023-01-30T05:36:06.074Z,60.60
2023-01-30T05:37:06.454Z,60.77
2023-01-30T05:38:06.208Z,62.02
2023-01-30T05:39:06.124Z,61.22
2023-01-30T05:40:06.093Z,61.65
2023-01-30T05:41:06.086Z,61.11
2023-01-30T05:42:06.179Z,61.17
2023-01-30T05:43:06.028Z,61.54
2023-01-30T05:44:06.084Z,61.28
2023-01-30T05:45:06.042Z,61.10
2023-01-30T05:46:06.037Z,61.87
2023-01-30T05:47:06.072Z,61.78
2023-01-30T05:48:06.039Z,60.95
2023-01-30T05:49:05.965Z,61.34
2023-01-30T05:50:06.011Z,62.59
2023-01-30T05:51:05.964Z,61.21
2023-01-30T05:52:05.973Z,61.24
2023-01-30T05:53:05.985Z,61.20
2023-01-30T05:54:05.997Z,63.01
2023-01-30T05:55:06.013Z,61.03
2023-01-30T05:56:05.919Z,61.22
2023-01-30T05:57:05.964Z,61.37
2023-01-30T05:58:05.922Z,60.98
2023-01-30T05:59:05.897Z,62.03
2023-01-30T06:00:05.910Z,59.05
2023-01-30T06:01:05.862Z,58.80
2023-01-30T06:02:05.974Z,56.32
2023-01-30T06:03:05.897Z,55.73
2023-01-30T06:04:05.907Z,55.63
2023-01-30T06:05:05.868Z,60.08
2023-01-30T06:06:05.896Z,60.71
2023-01-30T06:07:06.187Z,56.40
2023-01-30T06:08:05.839Z,57.15
2023-01-30T06:09:05.852Z,55.83
2023-01-30T06:10:05.856Z,57.82
2023-01-30T06:11:05.859Z,56.94
2023-01-30T06:12:05.811Z,57.76
2023-01-30T06:13:05.868Z,58.90
2023-01-30T06:14:05.882Z,56.08
2023-01-30T06:15:05.777Z,57.56
2023-01-30T06:16:05.834Z,58.96
2023-01-30T06:17:05.930Z,54.53
2023-01-30T06:18:05.805Z,55.01
2023-01-30T06:19:05.790Z,55.53
2023-01-30T06:20:05.771Z,57.50
2023-01-30T06:21:05.730Z,59.86
2023-01-30T06:22:05.884Z,55.69
2023-01-30T06:23:05.716Z,56.57
2023-01-30T06:24:05.767Z,57.70
2023-01-30T06:25:05.716Z,56.08
2023-01-30T06:26:08.152Z,56.24
2023-01-30T06:27:06.731Z,52.73
2023-01-30T06:28:05.741Z,54.78
2023-01-30T06:29:05.666Z,51.10
2023-01-30T06:30:05.668Z,53.39
2023-01-30T06:31:05.819Z,56.34
2023-01-30T06:32:05.680Z,53.69
2023-01-30T06:33:05.693Z,56.39
2023-01-30T06:34:05.683Z,56.34
2023-01-30T06:35:05.650Z,53.65
2023-01-30T06:36:05.639Z,54.72
2023-01-30T06:37:05.710Z,57.85
2023-01-30T06:38:05.666Z,53.03
2023-01-30T06:39:05.639Z,54.01
2023-01-30T06:40:05.619Z,54.75
2023-01-30T06:41:05.656Z,52.28
2023-01-30T06:42:05.602Z,52.17
2023-01-30T06:43:05.601Z,54.89
2023-01-30T06:44:05.616Z,61.79
2023-01-30T06:45:05.612Z,52.45
2023-01-30T06:46:05.595Z,52.38
2023-01-30T06:47:05.626Z,54.09
2023-01-30T06:48:05.533Z,53.40
2023-01-30T06:49:05.546Z,51.76
2023-01-30T06:50:05.547Z,55.03
2023-01-30T06:51:05.521Z,56.31
2023-01-30T06:52:05.516Z,52.17
2023-01-30T06:53:05.522Z,55.08
2023-01-30T06:54:05.474Z,56.45
2023-01-30T06:55:05.527Z,55.17
2023-01-30T06:56:05.563Z,53.18
2023-01-30T06:57:05.550Z,54.88
2023-01-30T06:58:05.442Z,52.80
2023-01-30T06:59:05.505Z,57.44
2023-01-30T07:00:05.421Z,57.99
2023-01-30T07:01:05.436Z,55.30
2023-01-30T07:02:05.494Z,56.13
2023-01-30T07:03:05.433Z,56.80
2023-01-30T07:04:05.465Z,56.41
2023-01-30T07:05:05.434Z,56.14
2023-01-30T07:06:05.443Z,58.86
2023-01-30T07:07:07.021Z,59.48
2023-01-30T07:08:05.372Z,59.29
2023-01-30T07:09:05.383Z,59.32
2023-01-30T07:10:08.677Z,61.36
2023-01-30T07:11:06.366Z,61.23
2023-01-30T07:12:05.377Z,62.30
2023-01-30T07:13:05.404Z,60.57
2023-01-30T07:14:06.405Z,60.71
2023-01-30T07:15:06.316Z,60.12
2023-01-30T07:16:05.387Z,60.10
2023-01-30T07:17:05.321Z,60.23
2023-01-30T07:18:05.326Z,60.00
2023-01-30T07:19:05.319Z,60.67
2023-01-30T07:20:05.300Z,61.73
2023-01-30T07:21:05.245Z,60.60
2023-01-30T07:22:05.290Z,59.95
2023-01-30T07:23:05.355Z,60.28
2023-01-30T07:24:05.288Z,60.52
2023-01-30T07:25:05.304Z,60.31
2023-01-30T07:26:05.276Z,59.92
2023-01-30T07:27:05.248Z,60.37
2023-01-30T07:28:05.399Z,64.15
2023-01-30T07:29:05.337Z,60.13
2023-01-30T07:30:05.230Z,59.02
2023-01-30T07:31:05.220Z,59.48
2023-01-30T07:32:05.257Z,59.31
2023-01-30T07:33:05.279Z,59.59
2023-01-30T07:34:05.181Z,59.71
2023-01-30T07:35:06.080Z,59.23
2023-01-30T07:36:06.165Z,59.61
2023-01-30T07:37:05.199Z,59.54
2023-01-30T07:38:05.212Z,60.56
2023-01-30T07:39:05.150Z,60.32
2023-01-30T07:40:05.169Z,52.05
2023-01-30T07:41:05.357Z,56.37
2023-01-30T07:42:05.158Z,57.66
2023-01-30T07:43:05.415Z,54.24
2023-01-30T07:44:05.149Z,57.39
2023-01-30T07:45:05.180Z,57.45
2023-01-30T07:46:05.215Z,59.50
2023-01-30T07:47:05.142Z,57.96
2023-01-30T07:48:05.152Z,57.49
2023-01-30T07:49:05.092Z,55.68
2023-01-30T07:50:05.108Z,57.00
2023-01-30T07:51:05.056Z,56.44
2023-01-30T07:52:05.081Z,56.45
2023-01-30T07:53:05.140Z,58.65
2023-01-30T07:54:05.139Z,58.42
2023-01-30T07:55:05.014Z,55.59
2023-01-30T07:56:05.025Z,54.94
2023-01-30T07:57:05.036Z,58.51
2023-01-30T07:58:05.181Z,56.22
2023-01-30T07:59:05.012Z,55.60
2023-01-30T08:00:05.124Z,56.58
2023-01-30T08:01:05.077Z,55.20
2023-01-30T08:02:04.965Z,59.69
2023-01-30T08:03:05.082Z,59.47
2023-01-30T08:04:04.988Z,53.76
2023-01-30T08:05:06.259Z,54.89
2023-01-30T08:06:05.976Z,53.01
2023-01-30T08:07:04.939Z,57.30
2023-01-30T08:08:05.021Z,57.50
2023-01-30T08:09:04.917Z,53.75
2023-01-30T08:10:05.030Z,56.87
2023-01-30T08:11:04.918Z,56.88
2023-01-30T08:12:04.946Z,54.88
2023-01-30T08:13:05.004Z,56.24
2023-01-30T08:14:04.839Z,57.60
2023-01-30T08:15:04.914Z,57.86
2023-01-30T08:16:04.844Z,54.91
2023-01-30T08:17:04.849Z,55.67
2023-01-30T08:18:04.913Z,56.96
2023-01-30T08:19:04.834Z,58.09
2023-01-30T08:20:04.867Z,57.01
2023-01-30T08:21:04.879Z,54.15
2023-01-30T08:22:04.824Z,57.19
2023-01-30T08:23:04.900Z,55.61
2023-01-30T08:24:04.857Z,56.46
2023-01-30T08:25:04.863Z,57.50
2023-01-30T08:26:05.820Z,57.18
2023-01-30T08:27:04.848Z,57.55
2023-01-30T08:28:05.843Z,54.71
2023-01-30T08:29:04.789Z,59.22
2023-01-30T08:30:04.747Z,60.15
2023-01-30T08:31:04.875Z,61.27
2023-01-30T08:32:04.751Z,61.38
2023-01-30T08:33:04.876Z,62.98
2023-01-30T08:34:04.753Z,62.95
2023-01-30T08:35:04.731Z,62.46
2023-01-30T08:36:04.705Z,62.68
2023-01-30T08:37:04.687Z,61.46
2023-01-30T08:38:04.734Z,60.47
2023-01-30T08:39:04.705Z,58.33
2023-01-30T08:40:04.719Z,59.34
2023-01-30T08:41:04.701Z,59.68
2023-01-30T08:42:04.659Z,58.55
2023-01-30T08:43:04.676Z,59.52
2023-01-30T08:44:04.830Z,57.56
2023-01-30T08:45:04.641Z,56.16
2023-01-30T08:46:04.742Z,56.45
2023-01-30T08:47:04.655Z,56.46
2023-01-30T08:48:04.669Z,57.48
2023-01-30T08:49:04.715Z,56.41
2023-01-30T08:50:04.666Z,56.24
2023-01-30T08:51:04.625Z,55.12
2023-01-30T08:52:04.590Z,55.24
2023-01-30T08:53:04.766Z,55.52
2023-01-30T08:54:05.605Z,56.96
2023-01-30T08:55:04.677Z,54.66
2023-01-30T08:56:04.559Z,53.60
2023-01-30T08:57:04.577Z,53.98
2023-01-30T08:58:04.626Z,53.74
2023-01-30T08:59:04.564Z,63.02
2023-01-30T09:00:04.576Z,57.96
2023-01-30T09:01:04.661Z,54.69
2023-01-30T09:02:04.525Z,57.41
2023-01-30T09:03:04.528Z,56.53
2023-01-30T09:04:04.511Z,56.04
2023-01-30T09:05:04.516Z,57.40
2023-01-30T09:06:04.521Z,58.07
2023-01-30T09:07:04.530Z,55.46
2023-01-30T09:08:04.483Z,57.39
2023-01-30T09:09:04.514Z,55.71
2023-01-30T09:10:04.523Z,58.61
2023-01-30T09:11:04.570Z,57.20
2023-01-30T09:12:04.516Z,56.18
2023-01-30T09:13:04.470Z,55.95
2023-01-30T09:14:04.422Z,54.88
2023-01-30T09:15:04.443Z,53.74
2023-01-30T09:16:04.424Z,58.84
2023-01-30T09:17:04.393Z,53.15
2023-01-30T09:18:04.446Z,54.49
2023-01-30T09:19:04.419Z,56.89
2023-01-30T09:20:04.405Z,56.09
2023-01-30T09:21:04.512Z,57.86
2023-01-30T09:22:04.423Z,60.90
2023-01-30T09:23:04.376Z,63.80
2023-01-30T09:24:04.395Z,63.08
2023-01-30T09:25:05.118Z,62.51
2023-01-30T09:26:04.405Z,61.41
2023-01-30T09:27:04.374Z,60.36
2023-01-30T09:28:04.358Z,59.54
2023-01-30T09:29:04.416Z,59.56
2023-01-30T09:30:04.485Z,59.15
2023-01-30T09:31:04.500Z,60.60
2023-01-30T09:32:04.364Z,59.23
2023-01-30T09:33:04.306Z,60.49
2023-01-30T09:34:04.268Z,60.47
2023-01-30T09:35:04.276Z,59.68
2023-01-30T09:36:04.296Z,59.50
2023-01-30T09:37:05.157Z,60.19
2023-01-30T09:38:05.273Z,60.30
2023-01-30T09:39:04.239Z,60.79
2023-01-30T09:40:04.218Z,62.37
2023-01-30T09:41:04.224Z,59.99
2023-01-30T09:42:04.301Z,59.71
2023-01-30T09:43:04.219Z,62.25
2023-01-30T09:44:04.226Z,60.47
2023-01-30T09:45:04.203Z,59.52
2023-01-30T09:46:04.252Z,61.56
2023-01-30T09:47:04.204Z,61.64
2023-01-30T09:48:04.156Z,61.51
2023-01-30T09:49:04.213Z,61.07
2023-01-30T09:50:04.213Z,60.82
2023-01-30T09:51:04.187Z,60.81
2023-01-30T09:52:04.218Z,60.93
2023-01-30T09:53:04.163Z,61.60
2023-01-30T09:54:04.190Z,60.82
2023-01-30T09:55:04.188Z,60.93
2023-01-30T09:56:04.125Z,60.38
2023-01-30T09:57:04.145Z,59.92
2023-01-30T09:58:04.165Z,59.50
2023-01-30T09:59:04.132Z,60.70
2023-01-30T10:00:04.090Z,59.21
2023-01-30T10:01:04.118Z,61.67
2023-01-30T10:02:04.101Z,59.92
2023-01-30T10:03:04.119Z,60.71
2023-01-30T10:04:04.081Z,59.02
2023-01-30T10:05:04.109Z,59.52
2023-01-30T10:06:04.037Z,58.96
2023-01-30T10:07:04.137Z,59.19
2023-01-30T10:08:04.064Z,60.08
2023-01-30T10:09:04.026Z,58.39
2023-01-30T10:10:04.172Z,57.80
2023-01-30T10:11:10.000Z,59.28
2023-01-30T10:12:06.008Z,58.21
2023-01-30T10:13:03.979Z,54.99
2023-01-30T10:14:03.960Z,54.78
2023-01-30T10:15:03.996Z,53.38
2023-01-30T10:16:04.070Z,58.53
2023-01-30T10:17:04.012Z,58.50
2023-01-30T10:18:04.049Z,53.89
2023-01-30T10:19:03.982Z,56.19
2023-01-30T10:20:03.918Z,53.02
2023-01-30T10:21:03.972Z,59.73
2023-01-30T10:22:03.968Z,54.95
2023-01-30T10:23:03.925Z,55.63
2023-01-30T10:24:03.942Z,55.91
2023-01-30T10:25:04.033Z,56.43
2023-01-30T10:26:03.920Z,53.06
2023-01-30T10:27:04.924Z,57.19
2023-01-30T10:28:04.850Z,58.13
2023-01-30T10:29:08.172Z,55.98
2023-01-30T10:30:05.067Z,58.55
2023-01-30T10:31:03.900Z,56.83
2023-01-30T10:32:03.900Z,54.99
2023-01-30T10:33:03.843Z,58.69
2023-01-30T10:34:03.888Z,58.78
2023-01-30T10:35:03.823Z,56.43
2023-01-30T10:36:03.842Z,56.14
2023-01-30T10:37:03.853Z,56.96
2023-01-30T10:38:03.872Z,55.63
2023-01-30T10:39:03.847Z,54.23
2023-01-30T10:40:03.817Z,57.43
2023-01-30T10:41:03.763Z,54.17
2023-01-30T10:42:04.793Z,52.37
2023-01-30T10:43:03.736Z,57.51
2023-01-30T10:44:03.772Z,53.68
2023-01-30T10:45:03.760Z,56.37
2023-01-30T10:46:03.793Z,56.37
2023-01-30T10:47:03.808Z,55.03
2023-01-30T10:48:03.757Z,56.68
2023-01-30T10:49:03.780Z,54.98
2023-01-30T10:50:03.736Z,56.74
2023-01-30T10:51:03.676Z,57.03
2023-01-30T10:52:03.720Z,54.71
2023-01-30T10:53:03.726Z,57.09
2023-01-30T10:54:03.743Z,55.44
2023-01-30T10:55:03.743Z,57.30
2023-01-30T10:56:36.225Z,53.77
2023-01-30T10:57:03.621Z,54.76
2023-01-30T10:58:03.643Z,54.93
2023-01-30T10:59:03.616Z,57.90
2023-01-30T11:00:03.603Z,53.92
2023-01-30T11:01:03.636Z,57.12
2023-01-30T11:02:03.671Z,54.72
2023-01-30T11:03:03.673Z,57.40
2023-01-30T11:04:04.566Z,54.83
2023-01-30T11:05:03.598Z,56.24
2023-01-30T11:06:03.588Z,56.67
2023-01-30T11:07:03.551Z,55.15
2023-01-30T11:08:03.568Z,53.19
2023-01-30T11:09:03.558Z,57.62
2023-01-30T11:10:03.526Z,53.86
2023-01-30T11:11:03.518Z,55.38
2023-01-30T11:12:03.512Z,56.55
2023-01-30T11:13:03.529Z,57.11
2023-01-30T11:14:03.497Z,55.31
2023-01-30T11:15:03.495Z,57.50
2023-01-30T11:16:03.578Z,58.04
2023-01-30T11:17:03.477Z,55.82
2023-01-30T11:18:32.869Z,59.22
2023-01-30T11:19:22.364Z,57.31
2023-01-30T11:20:05.451Z,53.87
2023-01-30T11:21:03.447Z,56.21
2023-01-30T11:22:03.435Z,51.26
2023-01-30T11:23:03.459Z,56.26
2023-01-30T11:24:03.435Z,54.56
2023-01-30T11:25:03.430Z,52.67
2023-01-30T11:26:11.382Z,56.09
2023-01-30T11:27:05.409Z,56.72
2023-01-30T11:28:03.419Z,54.82
2023-01-30T11:29:03.387Z,52.62
2023-01-30T11:30:03.401Z,59.26
2023-01-30T11:31:03.364Z,55.38
2023-01-30T11:32:04.451Z,55.16
2023-01-30T11:33:03.384Z,56.15
2023-01-30T11:34:03.352Z,53.98
2023-01-30T11:35:03.349Z,55.06
2023-01-30T11:36:04.539Z,51.94
2023-01-30T11:37:04.454Z,55.86
2023-01-30T11:38:03.345Z,54.70
2023-01-30T11:39:03.303Z,57.39
2023-01-30T11:40:03.305Z,55.08
2023-01-30T11:41:03.292Z,54.10
2023-01-30T11:42:03.282Z,54.70
2023-01-30T11:43:03.296Z,56.89
2023-01-30T11:44:03.287Z,57.56
2023-01-30T11:45:16.659Z,55.74
2023-01-30T11:46:05.332Z,56.03
2023-01-30T11:47:03.244Z,54.89
2023-01-30T11:48:03.877Z,55.37
2023-01-30T11:49:09.087Z,54.71
2023-01-30T11:50:12.561Z,57.45
2023-01-30T11:51:04.226Z,59.00
2023-01-30T11:52:03.202Z,56.35
2023-01-30T11:53:03.241Z,56.25
2023-01-30T11:54:03.185Z,55.52
2023-01-30T11:55:03.214Z,51.12
2023-01-30T11:56:07.294Z,56.91
2023-01-30T11:57:05.162Z,56.12
2023-01-30T11:58:03.196Z,54.73
2023-01-30T11:59:03.158Z,54.05
2023-01-30T12:00:03.144Z,54.50
2023-01-30T12:01:03.134Z,51.19
2023-01-30T12:02:03.199Z,49.82
2023-01-30T12:03:03.254Z,54.64
2023-01-30T12:04:03.143Z,55.09
2023-01-30T12:05:03.108Z,56.35
2023-01-30T12:06:03.123Z,56.68
2023-01-30T12:07:03.087Z,54.85
2023-01-30T12:08:03.105Z,55.62
2023-01-30T12:09:03.095Z,51.91
2023-01-30T12:10:03.081Z,55.85
2023-01-30T12:11:03.067Z,55.36
2023-01-30T12:12:03.073Z,57.58
2023-01-30T12:13:03.039Z,59.32
2023-01-30T12:14:03.058Z,56.75
2023-01-30T12:15:03.040Z,53.54
2023-01-30T12:16:03.065Z,54.97
2023-01-30T12:17:03.042Z,56.56
2023-01-30T12:18:02.998Z,58.08
2023-01-30T12:19:03.025Z,53.51
2023-01-30T12:20:02.987Z,54.32
2023-01-30T12:21:02.988Z,54.72
2023-01-30T12:22:02.974Z,57.65
2023-01-30T12:23:02.982Z,56.78
2023-01-30T12:24:02.987Z,57.12
2023-01-30T12:25:02.946Z,56.78
2023-01-30T12:26:02.955Z,58.99
2023-01-30T12:27:02.934Z,58.69
2023-01-30T12:28:02.936Z,54.01
2023-01-30T12:29:02.943Z,54.66
2023-01-30T12:30:02.909Z,56.25
2023-01-30T12:31:02.916Z,54.40
2023-01-30T12:32:02.904Z,54.84
2023-01-30T12:34:02.921Z,56.90
2023-01-30T12:35:02.878Z,59.26
2023-01-30T12:36:02.871Z,58.98
2023-01-30T12:37:02.857Z,54.84
2023-01-30T12:38:02.855Z,57.83
2023-01-30T12:39:02.874Z,55.61
2023-01-30T12:40:02.834Z,53.96
2023-01-30T12:41:02.829Z,56.97
2023-01-30T12:42:02.826Z,56.25
2023-01-30T12:43:02.843Z,55.03
2023-01-30T12:44:02.836Z,55.47
2023-01-30T12:45:02.803Z,57.53
2023-01-30T12:46:03.405Z,54.32
2023-01-30T12:47:02.782Z,56.22
2023-01-30T12:48:02.765Z,56.76
2023-01-30T12:49:10.853Z,51.97
2023-01-30T12:50:04.757Z,54.76
2023-01-30T12:51:02.762Z,56.51
2023-01-30T12:52:02.742Z,54.41
2023-01-30T12:53:02.741Z,57.06